Share

Alvy, WV

Curtisville (KWVMANNI4) Elev 1017 ft | 39.52 °N, 80.44 °W | Change Station

Current weather conditions updated 3 minutes ago

Clear
Clear
68.2 °F
Feels Like 68.2 °F
N
3.7
Wind Variable Wind from SSE
Sunrise 6:38 AM
Sunset 8:05 PM
Moon Waning Gibbous

Today is forecast to be Warmer than yesterday.

Pressure 30.31 in
Visibility 10.0 miles
Clouds Clear
Dew Point 30 °F
Humidity 24%
Rainfall 0.00 in
Snow Depth Not available.
UV 9 out of 16
Pollen 10.00 out of 12
Air Quality Not available.
Flu Activity Sporadic
METAR KCKB 201553Z 17007KT 10SM CLR 17/M03 A3032 RMK AO2 SLP262 T01721028

More Conditions Fewer Conditions

Pressure 30.31 in
Visibility 10.0 miles
Clouds Clear
Dew Point 30 °F
Humidity 24%
Rainfall 0.00 in
Snow Depth Not available.
UV 9 out of 16
Pollen 10.00 out of 12
Air Quality Not available.
Flu Activity Sporadic
METAR KCKB 201553Z 17007KT 10SM CLR 17/M03 A3032 RMK AO2 SLP262 T01721028

More Conditions Fewer Conditions

10-Day Weather Forecast

Almanac

Astronomy

Apr. 20, 2014 Rise Set
Actual Time 6:38 AM EDT 8:05 PM EDT
Civil Twilight 6:10 AM EDT 8:33 PM EDT
Nautical Twilight 5:36 AM EDT 9:07 PM EDT
Astronomical Twilight 5:00 AM EDT 9:43 PM EDT
Moon 12:43 AM EDT 10:57 AM EDT
Length of Visible Light 14h 23m
Length of Day
13h 27m
Tomorrow will be 2m 25s longer.
Waning Gibbous, 68% of the Moon is Illuminated
Today
Waning Gibbous
Apr 22
Last Quarter
Apr 29
New
May 6
First Quarter
May 14
Full

Today's Extremes

State Highs State Lows

Community

  • Columbine
    Columbine
  • Easter Sunrise
    Easter Sunrise
  • Easter Eve - The Promise - Lake Palestine, TX
    Easter Eve - The Promise - Lake Palestine, TX
  • Happy Easter
    Happy Easter
  • EARLY FOGGY MORNING
    EARLY FOGGY MORNING

WunderPhotos

Upload Photos

1,703,268 photos uploaded!

WunderBlogs® & News

Nearby

Snow Depth

Station Depth Elevation
No new snow has been reported.

Coastal Water Temperatures

Place Temperature
No Stations Reporting

Earthquake Activity

City Distance Mag. Time & Date
No recent earthquake activity has been reported nearby.
Minimum magnitude displayed is 2.5.

Nearby Weather Stations

Station Location Temp. Heat Index Dew Point Humidity Wind Precip. Elev Updated Type
Curtisville, Mannington, WV 68.2 °F - 30 °F 24% SSE  at  3.7 mph - / hr 1017 ft 12:23 PM EDT Normal
Marshville, Salem, WV 66.2 °F - 38 °F 35% NNE  at  2.2 mph - / hr 1122 ft 12:21 PM EDT Normal
Kidwell, WV, Sistersville, WV 70.2 °F 75 °F 32 °F 24% ESE  at  6.8 mph - / hr 738 ft 12:17 PM EDT Normal
North View, Clarksburg, WV 69.6 °F - 38 °F 31% SE  at  0.0 mph 0.00 in / hr 1045 ft 12:27 PM EDT Rapid Fire
W8PY @ Harmony, West Union, WV 70.6 °F 75 °F 30 °F 22% WSW  at  2.0 mph 0.00 in / hr 852 ft 12:14 PM EDT Normal

Show More Stations Show Fewer Stations

What do you think?

We're not finished. Please let us know what you like, what you don't like, and what you are still missing.